Time;durP1;ratioP1;P1;durP2;ratioP2;P2;SDS_P1;SDS_P2;PMS_P1;PMS_P2;Temp;Humidity;BMP_temperature;BMP_pressure;BME280_temperature;BME280_humidity;BME280_pressure;Samples;Min_cycle;Max_cycle;Signal;HPM_P1;HPM_P2
2022/05/18 00:00:05;;;;;;;;;;;16.30;99.90;;;;;;5076073;28;19908;-75
2022/05/18 00:02:31;;;;;;;;;;;16.20;99.90;;;;;;5076097;28;19908;-74
2022/05/18 00:04:56;;;;;;;;;;;16.30;99.90;;;;;;5076165;28;19919;-75
2022/05/18 00:07:22;;;;;;;;;;;16.50;99.90;;;;;;5058048;28;20289;-77
2022/05/18 00:09:49;;;;;;;;;;;16.60;99.90;;;;;;5058053;28;20284;-77
2022/05/18 00:12:15;;;;;;;;;;;16.70;99.90;;;;;;5075771;28;19916;-76
2022/05/18 00:14:41;;;;;;;;;;;16.80;99.90;;;;;;5057829;28;19908;-75
2022/05/18 00:17:07;;;;;;;;;;;16.70;99.90;;;;;;5076038;28;19963;-76
2022/05/18 00:19:33;;;;;;;;;;;16.60;99.90;;;;;;5076082;28;19908;-77
2022/05/18 00:21:58;;;;;;;;;;;16.50;99.90;;;;;;5075752;28;20292;-77
2022/05/18 00:24:24;;;;;;;;;;;16.50;99.90;;;;;;5075669;28;19909;-75
2022/05/18 00:26:50;;;;;;;;;;;16.60;99.90;;;;;;5075639;28;19912;-75
2022/05/18 00:29:15;;;;;;;;;;;16.60;99.90;;;;;;5075609;28;19915;-75
2022/05/18 00:31:41;;;;;;;;;;;16.50;99.90;;;;;;5075550;28;19915;-75
2022/05/18 00:34:08;;;;;;;;;;;16.60;99.90;;;;;;5057553;28;19952;-75
2022/05/18 00:36:33;;;;;;;;;;;16.60;99.90;;;;;;5075313;28;19941;-76
2022/05/18 00:38:59;;;;;;;;;;;16.60;99.90;;;;;;5057512;28;20032;-77
2022/05/18 00:41:25;;;;;;;;;;;16.60;99.90;;;;;;5075524;28;19912;-74
2022/05/18 00:43:51;;;;;;;;;;;16.50;99.90;;;;;;5057311;28;20003;-77
2022/05/18 00:46:17;;;;;;;;;;;16.50;99.90;;;;;;5075217;28;19947;-76
2022/05/18 00:48:43;;;;;;;;;;;16.50;99.90;;;;;;5075199;28;19962;-76
2022/05/18 00:51:16;;;;;;;;;;;16.40;99.90;;;;;;5075140;28;19908;-77
2022/05/18 00:53:45;;;;;;;;;;;16.30;99.90;;;;;;5075390;28;19908;-75
2022/05/18 00:56:13;;;;;;;;;;;16.20;99.90;;;;;;5057152;28;19994;-76
2022/05/18 00:58:48;;;;;;;;;;;16.10;99.90;;;;;;5075054;28;19909;-76
2022/05/18 01:01:14;;;;;;;;;;;16.20;99.90;;;;;;5056963;28;19920;-77
2022/05/18 01:03:42;;;;;;;;;;;15.90;99.90;;;;;;5074981;28;19908;-75
2022/05/18 01:06:07;;;;;;;;;;;15.70;99.90;;;;;;5074905;28;20007;-77
2022/05/18 01:08:36;;;;;;;;;;;15.70;99.90;;;;;;5074952;28;20403;-77
2022/05/18 01:11:02;;;;;;;;;;;15.70;99.90;;;;;;5074729;28;20463;-76
2022/05/18 01:13:28;;;;;;;;;;;15.80;99.90;;;;;;5056797;28;19936;-74
2022/05/18 01:15:53;;;;;;;;;;;15.90;99.90;;;;;;5056052;28;19915;-75
2022/05/18 01:18:19;;;;;;;;;;;15.90;99.90;;;;;;5074665;28;19995;-74
2022/05/18 01:20:45;;;;;;;;;;;15.90;99.90;;;;;;5074656;28;20011;-75
2022/05/18 01:23:10;;;;;;;;;;;16.00;99.90;;;;;;5074536;28;19961;-75
2022/05/18 01:25:50;;;;;;;;;;;16.00;99.90;;;;;;5056569;28;19912;-76
2022/05/18 01:28:15;;;;;;;;;;;15.80;99.90;;;;;;5074168;28;19938;-77
2022/05/18 01:30:43;;;;;;;;;;;15.50;99.90;;;;;;5074338;28;20278;-75
2022/05/18 01:33:08;;;;;;;;;;;15.20;99.90;;;;;;5074251;28;19947;-75
2022/05/18 01:35:37;;;;;;;;;;;15.10;99.90;;;;;;5074020;28;20377;-75
2022/05/18 01:38:03;;;;;;;;;;;15.20;99.90;;;;;;5074655;28;19944;-77
2022/05/18 01:40:41;;;;;;;;;;;15.30;99.90;;;;;;5074133;28;19913;-76
2022/05/18 01:43:18;;;;;;;;;;;15.40;99.90;;;;;;5074229;28;19919;-77
2022/05/18 01:45:49;;;;;;;;;;;15.50;99.90;;;;;;5074155;28;20003;-77
2022/05/18 01:48:15;;;;;;;;;;;15.40;99.90;;;;;;5074098;28;19908;-76
2022/05/18 01:50:41;;;;;;;;;;;15.50;99.90;;;;;;5056085;28;19915;-78
2022/05/18 01:53:07;;;;;;;;;;;15.40;99.90;;;;;;5074031;28;19999;-76
2022/05/18 01:55:33;;;;;;;;;;;15.50;99.90;;;;;;5073976;28;20372;-74
2022/05/18 01:57:59;;;;;;;;;;;15.50;99.90;;;;;;5073968;28;19909;-77
2022/05/18 02:00:25;;;;;;;;;;;15.50;99.90;;;;;;5073847;28;19958;-75
2022/05/18 02:02:51;;;;;;;;;;;15.40;99.90;;;;;;5074047;28;19909;-76
2022/05/18 02:05:16;;;;;;;;;;;15.50;99.90;;;;;;5074049;28;19919;-77
2022/05/18 02:07:42;;;;;;;;;;;15.40;99.90;;;;;;5055812;28;19915;-74
2022/05/18 02:10:08;;;;;;;;;;;15.40;99.90;;;;;;5073749;28;19913;-76
2022/05/18 02:12:34;;;;;;;;;;;15.40;99.90;;;;;;5073724;28;19915;-76
2022/05/18 02:15:00;;;;;;;;;;;15.00;99.90;;;;;;5073736;28;19908;-76
2022/05/18 02:17:26;;;;;;;;;;;15.00;99.90;;;;;;5073934;28;19908;-75
2022/05/18 02:19:51;;;;;;;;;;;15.00;99.90;;;;;;5055568;28;19915;-74
2022/05/18 02:22:17;;;;;;;;;;;15.00;99.90;;;;;;5073685;28;19915;-75
2022/05/18 02:24:43;;;;;;;;;;;15.00;99.90;;;;;;5073937;28;19916;-75
2022/05/18 02:27:08;;;;;;;;;;;15.20;99.90;;;;;;5073724;28;19915;-76
2022/05/18 02:29:34;;;;;;;;;;;15.30;99.90;;;;;;5073563;28;20273;-74
2022/05/18 02:32:00;;;;;;;;;;;15.40;99.90;;;;;;5073946;28;19908;-77
2022/05/18 02:34:26;;;;;;;;;;;15.30;99.90;;;;;;5073534;28;19912;-76
2022/05/18 02:36:51;;;;;;;;;;;15.20;99.90;;;;;;5055360;28;19970;-76
2022/05/18 02:39:20;;;;;;;;;;;15.20;99.90;;;;;;5073500;28;19912;-76
2022/05/18 02:41:47;;;;;;;;;;;15.00;99.90;;;;;;5073851;28;19913;-75
2022/05/18 02:44:12;;;;;;;;;;;15.00;99.90;;;;;;5073672;28;19916;-75
2022/05/18 02:46:38;;;;;;;;;;;14.90;99.90;;;;;;5055474;28;19909;-76
2022/05/18 02:49:04;;;;;;;;;;;14.90;99.90;;;;;;5073498;28;19962;-75
2022/05/18 02:51:30;;;;;;;;;;;14.90;99.90;;;;;;5073401;28;19931;-76
2022/05/18 02:53:56;;;;;;;;;;;14.90;99.90;;;;;;5073365;28;19955;-76
2022/05/18 02:56:24;;;;;;;;;;;14.70;99.90;;;;;;5073350;28;19908;-76
2022/05/18 02:58:50;;;;;;;;;;;14.60;99.90;;;;;;5073316;28;20054;-74
2022/05/18 03:01:19;;;;;;;;;;;14.30;99.90;;;;;;5073227;28;19946;-76
2022/05/18 03:03:45;;;;;;;;;;;14.50;99.90;;;;;;5073257;28;20296;-76
2022/05/18 03:06:12;;;;;;;;;;;14.70;99.90;;;;;;5073430;28;19931;-77
2022/05/18 03:08:39;;;;;;;;;;;14.70;99.90;;;;;;5073213;28;20003;-75
2022/05/18 03:11:04;;;;;;;;;;;14.40;99.90;;;;;;5073217;28;19909;-75
2022/05/18 03:13:30;;;;;;;;;;;14.10;99.90;;;;;;5073173;28;19908;-74
2022/05/18 03:15:56;;;;;;;;;;;14.00;99.90;;;;;;5073323;28;19951;-76
2022/05/18 03:18:21;;;;;;;;;;;14.10;99.90;;;;;;5073196;28;19962;-74
2022/05/18 03:23:34;;;;;;;;;;;14.70;99.90;;;;;;5073187;28;19961;-77
2022/05/18 03:26:00;;;;;;;;;;;14.80;99.90;;;;;;5073253;28;20345;-76
2022/05/18 03:28:26;;;;;;;;;;;14.30;99.90;;;;;;5073186;28;19909;-76
2022/05/18 03:30:51;;;;;;;;;;;14.30;99.90;;;;;;5073220;28;20385;-75
2022/05/18 03:33:17;;;;;;;;;;;14.30;99.90;;;;;;5054979;28;19963;-77
2022/05/18 03:35:42;;;;;;;;;;;14.30;99.90;;;;;;5073196;28;19921;-76
2022/05/18 03:38:08;;;;;;;;;;;14.30;99.90;;;;;;5073686;28;19908;-75
2022/05/18 03:40:37;;;;;;;;;;;14.20;99.90;;;;;;5076378;28;20395;-76
2022/05/18 03:43:03;;;;;;;;;;;14.10;99.90;;;;;;5058608;28;19909;-76
2022/05/18 03:45:29;;;;;;;;;;;14.10;99.90;;;;;;5076504;28;19923;-76
2022/05/18 03:47:55;;;;;;;;;;;14.00;99.90;;;;;;5076386;28;19909;-77
2022/05/18 03:50:20;;;;;;;;;;;14.20;99.90;;;;;;5076316;28;19908;-75
2022/05/18 03:52:46;;;;;;;;;;;14.20;99.90;;;;;;5076312;28;19958;-76
2022/05/18 03:55:12;;;;;;;;;;;14.20;99.90;;;;;;5076231;28;19962;-76
2022/05/18 03:57:37;;;;;;;;;;;14.20;99.90;;;;;;5076138;28;19915;-75
2022/05/18 04:00:04;;;;;;;;;;;14.00;99.90;;;;;;5076237;28;19915;-75
2022/05/18 04:02:30;;;;;;;;;;;13.70;99.90;;;;;;5076247;28;19916;-74
2022/05/18 04:04:56;;;;;;;;;;;13.90;99.90;;;;;;5076180;28;19909;-77
2022/05/18 04:07:21;;;;;;;;;;;13.90;99.90;;;;;;5076219;28;20365;-76
2022/05/18 04:09:47;;;;;;;;;;;13.90;99.90;;;;;;5076326;28;19915;-76
2022/05/18 04:12:13;;;;;;;;;;;14.00;99.90;;;;;;5076065;28;19916;-76
2022/05/18 04:14:39;;;;;;;;;;;13.90;99.90;;;;;;5057962;28;19930;-75
2022/05/18 04:17:04;;;;;;;;;;;13.90;99.90;;;;;;5057903;28;19909;-75
2022/05/18 04:19:30;;;;;;;;;;;14.00;99.90;;;;;;5076186;28;19942;-75
2022/05/18 04:21:56;;;;;;;;;;;13.80;99.90;;;;;;5075698;28;19938;-75
2022/05/18 04:24:21;;;;;;;;;;;13.60;99.90;;;;;;5075772;28;20038;-76
2022/05/18 04:26:48;;;;;;;;;;;13.50;99.90;;;;;;5075661;28;20274;-75
2022/05/18 04:29:14;;;;;;;;;;;13.70;99.90;;;;;;5075679;28;19909;-74
2022/05/18 04:31:41;;;;;;;;;;;13.80;99.90;;;;;;5075556;28;20288;-76
2022/05/18 04:34:07;;;;;;;;;;;13.80;99.90;;;;;;5057519;28;19920;-76
2022/05/18 04:36:32;;;;;;;;;;;13.80;99.90;;;;;;5075278;28;19921;-75
2022/05/18 04:38:58;;;;;;;;;;;13.80;99.90;;;;;;5075486;28;19908;-76
2022/05/18 04:41:23;;;;;;;;;;;13.70;99.90;;;;;;5075675;28;19912;-75
2022/05/18 04:43:49;;;;;;;;;;;13.60;99.90;;;;;;5075372;28;20280;-76
2022/05/18 04:46:15;;;;;;;;;;;13.70;99.90;;;;;;5075328;28;19909;-76
2022/05/18 04:48:41;;;;;;;;;;;13.70;99.90;;;;;;5075247;28;20270;-75
2022/05/18 04:51:06;;;;;;;;;;;13.80;99.90;;;;;;5074677;28;19909;-75
2022/05/18 04:53:35;;;;;;;;;;;13.90;99.90;;;;;;5075104;28;19916;-75
2022/05/18 04:56:01;;;;;;;;;;;14.00;99.90;;;;;;5075249;28;19915;-76
2022/05/18 04:58:27;;;;;;;;;;;14.00;99.90;;;;;;5075091;28;19913;-75
2022/05/18 05:00:58;;;;;;;;;;;14.10;99.90;;;;;;5074881;28;19919;-76
2022/05/18 05:03:24;;;;;;;;;;;13.80;99.90;;;;;;5056789;28;19915;-75
2022/05/18 05:05:50;;;;;;;;;;;13.90;99.90;;;;;;5074939;28;19909;-77
2022/05/18 05:08:16;;;;;;;;;;;14.00;99.90;;;;;;5074951;28;19909;-77
2022/05/18 05:10:41;;;;;;;;;;;14.20;99.90;;;;;;5074759;28;19940;-77
2022/05/18 05:13:07;;;;;;;;;;;14.30;99.90;;;;;;5074772;28;20393;-75
2022/05/18 05:15:33;;;;;;;;;;;14.40;99.90;;;;;;5074706;28;20433;-75
2022/05/18 05:17:58;;;;;;;;;;;14.60;99.90;;;;;;5056677;28;19913;-76
2022/05/18 05:20:24;;;;;;;;;;;14.50;99.90;;;;;;5074495;28;19912;-76
2022/05/18 05:22:50;;;;;;;;;;;14.60;99.90;;;;;;5074832;28;19916;-76
2022/05/18 05:25:16;;;;;;;;;;;14.90;99.90;;;;;;5074870;28;20352;-76
2022/05/18 05:27:41;;;;;;;;;;;15.00;99.90;;;;;;5074694;28;20272;-75
2022/05/18 05:30:08;;;;;;;;;;;15.20;99.90;;;;;;5056438;28;19912;-75
2022/05/18 05:32:34;;;;;;;;;;;15.60;99.90;;;;;;5074323;28;19909;-75
2022/05/18 05:35:00;;;;;;;;;;;15.60;99.90;;;;;;5074234;28;19947;-76
2022/05/18 05:37:26;;;;;;;;;;;15.50;99.90;;;;;;5073868;28;19925;-76
2022/05/18 05:39:51;;;;;;;;;;;15.60;99.90;;;;;;5056361;28;19915;-75
2022/05/18 05:42:17;;;;;;;;;;;15.70;99.90;;;;;;5074138;28;19916;-77
2022/05/18 05:44:43;;;;;;;;;;;15.70;99.90;;;;;;5074054;28;19909;-76
2022/05/18 05:47:11;;;;;;;;;;;15.70;99.90;;;;;;5074049;28;19908;-74
2022/05/18 05:49:38;;;;;;;;;;;16.00;99.90;;;;;;5073969;28;19912;-75
2022/05/18 05:52:04;;;;;;;;;;;16.00;99.90;;;;;;5055983;28;20438;-77
2022/05/18 05:54:30;;;;;;;;;;;16.10;99.90;;;;;;5055999;28;19916;-74
2022/05/18 05:56:56;;;;;;;;;;;16.00;99.90;;;;;;5074126;28;19908;-76
2022/05/18 05:59:22;;;;;;;;;;;16.10;99.90;;;;;;5055776;28;19958;-75
2022/05/18 06:01:47;;;;;;;;;;;16.00;99.90;;;;;;5073498;28;19999;-75
2022/05/18 06:04:14;;;;;;;;;;;16.10;99.90;;;;;;5073739;28;19908;-77
2022/05/18 06:06:40;;;;;;;;;;;16.20;99.90;;;;;;5055858;28;19958;-74
2022/05/18 06:09:08;;;;;;;;;;;16.40;99.90;;;;;;5074167;28;19908;-75
2022/05/18 06:11:35;;;;;;;;;;;16.50;99.90;;;;;;5073718;28;20266;-76
2022/05/18 06:14:01;;;;;;;;;;;16.70;99.90;;;;;;5055811;28;19908;-77
2022/05/18 06:16:27;;;;;;;;;;;16.60;99.90;;;;;;5073736;28;20428;-75
2022/05/18 06:18:52;;;;;;;;;;;16.80;99.90;;;;;;5073875;28;19935;-75
2022/05/18 06:21:18;;;;;;;;;;;16.70;99.90;;;;;;5073902;28;19920;-75
2022/05/18 06:23:44;;;;;;;;;;;16.60;99.90;;;;;;5073616;28;19908;-76
2022/05/18 06:26:09;;;;;;;;;;;16.20;99.90;;;;;;5073751;28;19958;-77
2022/05/18 06:28:40;;;;;;;;;;;16.10;99.90;;;;;;5073532;28;19943;-75
2022/05/18 06:31:06;;;;;;;;;;;16.40;99.90;;;;;;5073840;28;19951;-75
2022/05/18 06:33:32;;;;;;;;;;;16.90;99.90;;;;;;5073548;28;19908;-75
2022/05/18 06:35:57;;;;;;;;;;;17.30;99.90;;;;;;5073577;28;20436;-76
2022/05/18 06:38:23;;;;;;;;;;;17.10;99.90;;;;;;5055508;28;19912;-77
2022/05/18 06:43:33;;;;;;;;;;;17.00;99.90;;;;;;5073648;28;20391;-76
2022/05/18 06:46:00;;;;;;;;;;;17.10;99.90;;;;;;5073459;28;19908;-75
2022/05/18 06:48:25;;;;;;;;;;;17.20;99.90;;;;;;5073448;28;20400;-75
2022/05/18 06:50:51;;;;;;;;;;;17.20;99.90;;;;;;5073388;28;19908;-74
2022/05/18 06:53:16;;;;;;;;;;;17.30;99.90;;;;;;5073368;28;19912;-76
2022/05/18 06:55:42;;;;;;;;;;;17.70;99.90;;;;;;5073306;28;19991;-75
2022/05/18 06:58:07;;;;;;;;;;;17.80;99.90;;;;;;5073300;28;19917;-77
2022/05/18 07:00:33;;;;;;;;;;;17.70;99.90;;;;;;5073240;28;19920;-76
2022/05/18 07:02:59;;;;;;;;;;;17.80;99.90;;;;;;5073499;28;20046;-75
2022/05/18 07:05:24;;;;;;;;;;;18.10;99.90;;;;;;5073462;28;20378;-75
2022/05/18 07:07:50;;;;;;;;;;;18.30;99.90;;;;;;5055292;28;19909;-76
2022/05/18 07:10:15;;;;;;;;;;;18.50;99.90;;;;;;5055178;28;20319;-76
2022/05/18 07:12:41;;;;;;;;;;;18.60;99.90;;;;;;5073098;28;19938;-75
2022/05/18 07:15:07;;;;;;;;;;;18.90;99.90;;;;;;5076878;28;20011;-74
2022/05/18 07:17:33;;;;;;;;;;;19.20;99.90;;;;;;5077162;28;19909;-75
2022/05/18 07:19:59;;;;;;;;;;;20.30;99.90;;;;;;5076999;28;19931;-75
2022/05/18 07:22:24;;;;;;;;;;;22.70;99.90;;;;;;5077088;28;19913;-77
2022/05/18 07:24:50;;;;;;;;;;;23.00;99.90;;;;;;5076830;28;19916;-75
2022/05/18 07:27:16;;;;;;;;;;;22.90;99.90;;;;;;5076801;28;19943;-75
2022/05/18 07:29:42;;;;;;;;;;;24.10;99.90;;;;;;5076750;28;20280;-77
2022/05/18 07:32:14;;;;;;;;;;;25.30;97.00;;;;;;5076706;28;19943;-77
2022/05/18 07:34:44;;;;;;;;;;;26.30;93.30;;;;;;5077036;28;19915;-75
2022/05/18 07:37:10;;;;;;;;;;;27.10;90.40;;;;;;5076158;28;19920;-75
2022/05/18 07:39:36;;;;;;;;;;;27.20;86.70;;;;;;5076694;28;20288;-76
2022/05/18 07:42:05;;;;;;;;;;;28.10;83.80;;;;;;5076187;28;19912;-75
2022/05/18 07:44:31;;;;;;;;;;;27.90;82.30;;;;;;5076910;28;19915;-76
2022/05/18 07:46:57;;;;;;;;;;;26.40;83.00;;;;;;5076571;28;20368;-76
2022/05/18 07:49:22;;;;;;;;;;;26.90;85.10;;;;;;5076581;28;19915;-77
2022/05/18 07:51:48;;;;;;;;;;;25.50;86.00;;;;;;5076327;28;19956;-77
2022/05/18 07:54:14;;;;;;;;;;;24.80;91.00;;;;;;5076338;28;19909;-77
2022/05/18 07:56:40;;;;;;;;;;;25.40;91.30;;;;;;5076238;28;19909;-75
2022/05/18 07:59:06;;;;;;;;;;;25.50;89.80;;;;;;5076380;28;19916;-77
2022/05/18 08:01:32;;;;;;;;;;;25.00;90.40;;;;;;5076196;28;19912;-78
2022/05/18 08:03:58;;;;;;;;;;;24.70;92.70;;;;;;5076105;28;19909;-75
2022/05/18 08:06:23;;;;;;;;;;;25.70;90.20;;;;;;5058149;28;19932;-75
2022/05/18 08:08:49;;;;;;;;;;;26.60;85.10;;;;;;5076058;28;19958;-76
2022/05/18 08:16:43;;;;;;;;;;;25.00;90.40;;;;;;5075661;28;19920;-75
2022/05/18 08:19:12;;;;;;;;;;;25.20;90.80;;;;;;5075857;28;20357;-77
2022/05/18 08:21:38;;;;;;;;;;;25.10;90.00;;;;;;5075775;28;19916;-76
2022/05/18 08:24:05;;;;;;;;;;;24.50;90.60;;;;;;5075590;28;19908;-75
2022/05/18 08:26:31;;;;;;;;;;;23.90;91.70;;;;;;5057773;28;19908;-75
2022/05/18 08:28:58;;;;;;;;;;;24.70;90.50;;;;;;5057858;28;19924;-77
2022/05/18 08:31:23;;;;;;;;;;;25.40;87.40;;;;;;5057615;28;19948;-78
2022/05/18 08:33:49;;;;;;;;;;;26.70;84.80;;;;;;5075721;28;19943;-75
2022/05/18 08:36:17;;;;;;;;;;;27.00;81.40;;;;;;5075325;28;19927;-77
2022/05/18 08:38:43;;;;;;;;;;;26.20;82.80;;;;;;5075489;28;19909;-76
2022/05/18 08:41:11;;;;;;;;;;;25.60;83.60;;;;;;5075474;28;19912;-76
2022/05/18 08:43:39;;;;;;;;;;;25.70;85.40;;;;;;5075375;28;19948;-77
2022/05/18 08:46:28;;;;;;;;;;;25.50;86.20;;;;;;5075341;28;19912;-75
2022/05/18 08:49:02;;;;;;;;;;;25.60;83.30;;;;;;5055835;28;19959;-76
2022/05/18 08:51:56;;;;;;;;;;;25.30;84.00;;;;;;5075227;28;20279;-76
2022/05/18 08:54:21;;;;;;;;;;;24.20;88.30;;;;;;5075413;28;19908;-76
2022/05/18 08:56:49;;;;;;;;;;;23.80;90.70;;;;;;5075339;28;19912;-76
2022/05/18 08:59:20;;;;;;;;;;;23.70;92.10;;;;;;5057146;28;20003;-76
2022/05/18 09:01:47;;;;;;;;;;;23.60;91.70;;;;;;5074945;28;20258;-77
2022/05/18 09:04:18;;;;;;;;;;;24.00;91.50;;;;;;5075268;28;19908;-78
2022/05/18 09:06:46;;;;;;;;;;;24.60;90.40;;;;;;5074880;28;20379;-78
2022/05/18 09:12:01;;;;;;;;;;;25.10;85.20;;;;;;5074940;28;20341;-77
2022/05/18 09:14:30;;;;;;;;;;;25.60;83.90;;;;;;5074920;28;20444;-77
2022/05/18 09:17:06;;;;;;;;;;;26.60;82.30;;;;;;5056755;28;20008;-75
2022/05/18 09:19:41;;;;;;;;;;;26.00;79.80;;;;;;5075004;28;20323;-75
2022/05/18 09:22:10;;;;;;;;;;;26.10;81.30;;;;;;5074950;28;19920;-76
2022/05/18 09:24:55;;;;;;;;;;;26.00;77.30;;;;;;5074704;28;20261;-77
2022/05/18 09:27:47;;;;;;;;;;;26.60;76.70;;;;;;5074311;28;19916;-76
2022/05/18 09:30:31;;;;;;;;;;;27.70;72.80;;;;;;5058038;28;19909;-78
2022/05/18 09:33:07;;;;;;;;;;;28.00;70.60;;;;;;5074360;28;19916;-77
2022/05/18 09:35:39;;;;;;;;;;;28.40;68.50;;;;;;5073795;28;19916;-78
2022/05/18 09:38:06;;;;;;;;;;;27.90;67.60;;;;;;5074413;28;20347;-76
2022/05/18 09:40:34;;;;;;;;;;;27.90;67.60;;;;;;5074327;28;19912;-77
2022/05/18 09:43:06;;;;;;;;;;;27.50;67.20;;;;;;5074293;28;19918;-75
2022/05/18 09:45:33;;;;;;;;;;;27.70;66.60;;;;;;5074158;28;19908;-78
2022/05/18 09:48:04;;;;;;;;;;;28.50;65.40;;;;;;5074084;28;19915;-76
2022/05/18 09:50:29;;;;;;;;;;;29.20;64.30;;;;;;5056121;28;19947;-77
2022/05/18 09:52:55;;;;;;;;;;;29.90;61.50;;;;;;5074017;28;20336;-76
2022/05/18 09:55:22;;;;;;;;;;;29.60;61.40;;;;;;5074078;28;19908;-76
2022/05/18 09:57:57;;;;;;;;;;;30.30;58.50;;;;;;5073936;28;19909;-77
2022/05/18 10:00:24;;;;;;;;;;;30.10;58.10;;;;;;5074035;28;19961;-76
2022/05/18 10:08:23;;;;;;;;;;;28.90;62.60;;;;;;5073664;28;20022;-76
2022/05/18 10:10:54;;;;;;;;;;;28.60;62.30;;;;;;5074010;28;19916;-75
2022/05/18 10:13:24;;;;;;;;;;;28.30;62.80;;;;;;5073941;28;20365;-75
2022/05/18 10:15:59;;;;;;;;;;;27.70;62.50;;;;;;5073760;28;19958;-77
2022/05/18 10:18:28;;;;;;;;;;;28.00;62.20;;;;;;5073973;28;19908;-76
2022/05/18 10:21:11;;;;;;;;;;;29.10;61.20;;;;;;5073647;28;19920;-77
2022/05/18 10:23:40;;;;;;;;;;;31.20;58.50;;;;;;5073722;28;19912;-77
2022/05/18 10:26:11;;;;;;;;;;;32.90;55.90;;;;;;5073673;28;19909;-79
2022/05/18 10:28:40;;;;;;;;;;;33.30;51.30;;;;;;5073628;28;19916;-78
2022/05/18 10:31:07;;;;;;;;;;;32.10;51.90;;;;;;5073650;28;19909;-77
2022/05/18 10:33:39;;;;;;;;;;;34.10;52.20;;;;;;5073633;28;19908;-77
2022/05/18 10:36:12;;;;;;;;;;;34.10;50.80;;;;;;5055318;28;19924;-78
2022/05/18 10:38:48;;;;;;;;;;;35.90;50.00;;;;;;5073523;28;19909;-78
2022/05/18 10:41:14;;;;;;;;;;;34.00;47.70;;;;;;5055301;28;19959;-78
2022/05/18 10:43:40;;;;;;;;;;;32.50;50.90;;;;;;5073520;28;19916;-76
2022/05/18 10:46:16;;;;;;;;;;;32.60;49.90;;;;;;5073391;28;19908;-78
2022/05/18 10:48:43;;;;;;;;;;;34.70;49.30;;;;;;5074984;28;19913;-77
2022/05/18 10:51:11;;;;;;;;;;;35.70;46.70;;;;;;5077498;28;19915;-78
2022/05/18 10:53:45;;;;;;;;;;;36.90;45.70;;;;;;5059433;28;19947;-77
2022/05/18 10:56:12;;;;;;;;;;;36.10;45.80;;;;;;5059209;28;19909;-76
2022/05/18 10:59:04;;;;;;;;;;;35.20;45.70;;;;;;5077380;28;19915;-76
2022/05/18 11:01:38;;;;;;;;;;;35.10;46.40;;;;;;5077305;28;19912;-77
2022/05/18 11:04:13;;;;;;;;;;;36.30;43.90;;;;;;5077311;28;19908;-77
2022/05/18 11:06:39;;;;;;;;;;;35.20;45.50;;;;;;5077186;28;19971;-78
2022/05/18 11:09:25;;;;;;;;;;;34.90;46.60;;;;;;5077185;28;19908;-76
2022/05/18 11:12:00;;;;;;;;;;;34.20;46.80;;;;;;5076687;28;19908;-76
2022/05/18 11:14:26;;;;;;;;;;;33.70;47.20;;;;;;5077061;28;19909;-76
2022/05/18 11:17:03;;;;;;;;;;;33.20;46.60;;;;;;5077044;28;19914;-77
2022/05/18 11:19:47;;;;;;;;;;;32.10;47.90;;;;;;5058791;28;19950;-77
2022/05/18 11:22:22;;;;;;;;;;;32.50;48.60;;;;;;5077013;28;20288;-76
2022/05/18 11:25:05;;;;;;;;;;;32.60;49.40;;;;;;5076857;28;19919;-76
2022/05/18 11:27:46;;;;;;;;;;;32.10;49.40;;;;;;5058855;28;19915;-76
2022/05/18 11:30:32;;;;;;;;;;;33.20;48.70;;;;;;5076612;28;20380;-78
2022/05/18 11:33:03;;;;;;;;;;;33.50;47.40;;;;;;5055436;28;19966;-78
2022/05/18 11:35:32;;;;;;;;;;;33.80;48.40;;;;;;5076585;28;19916;-77
2022/05/18 11:37:57;;;;;;;;;;;32.20;49.00;;;;;;5076807;28;19912;-77
2022/05/18 11:40:29;;;;;;;;;;;31.40;50.10;;;;;;5058534;28;20316;-75
2022/05/18 11:42:58;;;;;;;;;;;31.50;50.60;;;;;;5076665;28;19969;-75
2022/05/18 11:45:26;;;;;;;;;;;31.90;51.30;;;;;;5076517;28;19908;-78
2022/05/18 11:48:07;;;;;;;;;;;31.70;50.80;;;;;;5076423;28;20335;-77
2022/05/18 11:50:32;;;;;;;;;;;32.30;50.20;;;;;;5076401;28;19908;-78
2022/05/18 11:53:18;;;;;;;;;;;33.40;48.70;;;;;;5076318;28;20376;-78
2022/05/18 11:56:02;;;;;;;;;;;34.10;47.70;;;;;;5076786;28;19908;-77
2022/05/18 11:59:22;;;;;;;;;;;34.90;47.50;;;;;;5076111;28;19916;-76
2022/05/18 12:01:31;;;;;;;;;;;35.40;45.40;;;;;;5073784;28;19912;-76
2022/05/18 12:04:06;;;;;;;;;;;37.20;44.70;;;;;;5076323;28;19908;-77
2022/05/18 12:06:51;;;;;;;;;;;39.10;43.10;;;;;;5076143;28;20346;-77
2022/05/18 12:09:19;;;;;;;;;;;37.60;42.00;;;;;;5076294;28;19987;-78
2022/05/18 12:11:59;;;;;;;;;;;35.60;43.10;;;;;;5075938;28;19909;-76
2022/05/18 12:14:43;;;;;;;;;;;34.80;43.20;;;;;;5076217;28;20013;-79
2022/05/18 12:17:12;;;;;;;;;;;33.90;45.30;;;;;;5076189;28;19912;-76
2022/05/18 12:19:46;;;;;;;;;;;33.90;46.70;;;;;;5057860;28;19912;-76
2022/05/18 12:22:13;;;;;;;;;;;33.70;46.30;;;;;;5075766;28;19913;-79
2022/05/18 12:24:41;;;;;;;;;;;34.40;46.60;;;;;;5057807;28;20288;-78
2022/05/18 12:27:08;;;;;;;;;;;35.90;45.70;;;;;;5075694;28;19912;-76
2022/05/18 12:29:35;;;;;;;;;;;36.80;42.90;;;;;;5075720;28;19961;-76
2022/05/18 12:32:01;;;;;;;;;;;37.20;43.40;;;;;;5075627;28;20288;-76
2022/05/18 12:34:47;;;;;;;;;;;37.20;42.80;;;;;;5075730;28;19923;-78
2022/05/18 12:37:12;;;;;;;;;;;38.90;43.40;;;;;;5067821;28;20404;-77
2022/05/18 12:39:49;;;;;;;;;;;38.40;41.30;;;;;;5075489;28;19909;-76
2022/05/18 12:42:16;;;;;;;;;;;37.40;42.40;;;;;;5075879;28;19938;-77
2022/05/18 12:44:43;;;;;;;;;;;37.00;42.90;;;;;;5075508;28;19908;-78
2022/05/18 12:47:17;;;;;;;;;;;37.20;42.50;;;;;;5075506;28;20373;-77
2022/05/18 12:49:43;;;;;;;;;;;36.10;43.30;;;;;;5057459;28;19913;-77
2022/05/18 12:52:15;;;;;;;;;;;35.10;44.00;;;;;;5075497;28;19915;-76
2022/05/18 12:54:47;;;;;;;;;;;35.20;45.00;;;;;;5075579;28;19908;-77
2022/05/18 12:57:17;;;;;;;;;;;35.20;44.00;;;;;;5075081;28;19909;-77
2022/05/18 12:59:54;;;;;;;;;;;34.90;43.30;;;;;;5056974;28;19909;-78
2022/05/18 13:02:32;;;;;;;;;;;34.60;43.60;;;;;;5075219;28;20011;-78
2022/05/18 13:04:58;;;;;;;;;;;34.80;42.90;;;;;;5057043;28;19913;-78
2022/05/18 13:07:25;;;;;;;;;;;34.90;43.30;;;;;;5075029;28;19961;-76
2022/05/18 13:10:03;;;;;;;;;;;35.10;43.30;;;;;;5074923;28;20318;-77
2022/05/18 13:12:30;;;;;;;;;;;34.30;43.90;;;;;;5074461;28;19970;-78
2022/05/18 13:14:56;;;;;;;;;;;32.90;45.20;;;;;;5074750;28;19954;-78
2022/05/18 13:17:23;;;;;;;;;;;32.10;46.00;;;;;;5074939;28;19909;-76
2022/05/18 13:19:58;;;;;;;;;;;33.40;45.70;;;;;;5074660;28;19909;-77
2022/05/18 13:22:25;;;;;;;;;;;33.90;45.20;;;;;;5074727;28;19912;-76
2022/05/18 13:24:59;;;;;;;;;;;34.00;44.80;;;;;;5074570;28;20361;-77
2022/05/18 13:27:27;;;;;;;;;;;34.10;45.10;;;;;;5074548;28;19909;-78
2022/05/18 13:29:54;;;;;;;;;;;33.60;45.00;;;;;;5074486;28;19915;-77
2022/05/18 13:32:20;;;;;;;;;;;34.30;45.30;;;;;;5056589;28;20254;-76
2022/05/18 13:35:06;;;;;;;;;;;35.10;45.30;;;;;;5074400;28;19909;-78
2022/05/18 13:37:32;;;;;;;;;;;35.60;44.10;;;;;;5073828;28;20270;-76
2022/05/18 13:39:57;;;;;;;;;;;34.60;45.20;;;;;;5074694;28;19912;-78
2022/05/18 13:42:28;;;;;;;;;;;33.10;45.50;;;;;;5074314;28;20027;-77
2022/05/18 13:44:57;;;;;;;;;;;34.40;46.10;;;;;;5074280;28;20436;-77
2022/05/18 13:47:25;;;;;;;;;;;34.50;44.90;;;;;;5074294;28;19909;-77
2022/05/18 13:49:50;;;;;;;;;;;33.60;46.20;;;;;;5074101;28;19909;-77
2022/05/18 13:52:21;;;;;;;;;;;33.90;47.00;;;;;;5074228;28;19909;-78
2022/05/18 13:54:50;;;;;;;;;;;34.10;46.20;;;;;;5074125;28;19948;-78
2022/05/18 13:57:18;;;;;;;;;;;33.80;47.90;;;;;;5074014;28;19908;-78
2022/05/18 13:59:49;;;;;;;;;;;34.30;47.30;;;;;;5074009;28;20285;-78
2022/05/18 14:02:28;;;;;;;;;;;33.50;46.20;;;;;;5073892;28;20007;-78
2022/05/18 14:04:56;;;;;;;;;;;33.10;48.00;;;;;;5074015;28;19925;-77
2022/05/18 14:07:22;;;;;;;;;;;33.60;47.90;;;;;;5074126;28;19912;-78
2022/05/18 14:09:50;;;;;;;;;;;32.70;48.80;;;;;;5073930;28;20129;-77
2022/05/18 14:12:18;;;;;;;;;;;32.70;48.80;;;;;;5073753;28;20014;-78
2022/05/18 14:14:43;;;;;;;;;;;32.50;48.90;;;;;;5073784;28;19909;-76
2022/05/18 14:17:11;;;;;;;;;;;32.20;48.30;;;;;;5074020;28;19909;-77
2022/05/18 14:19:41;;;;;;;;;;;32.10;48.70;;;;;;5073874;28;19915;-77
2022/05/18 14:22:07;;;;;;;;;;;33.20;48.10;;;;;;5073469;28;20426;-76
2022/05/18 14:24:40;;;;;;;;;;;33.70;48.80;;;;;;5073349;28;19916;-77
2022/05/18 14:27:18;;;;;;;;;;;33.60;47.80;;;;;;5074012;28;19912;-76
2022/05/18 14:29:55;;;;;;;;;;;32.90;47.90;;;;;;5069465;28;20300;-77
2022/05/18 14:32:26;;;;;;;;;;;33.20;49.20;;;;;;5072291;28;19909;-77
2022/05/18 14:34:53;;;;;;;;;;;33.90;48.80;;;;;;5055121;28;19999;-78
2022/05/18 14:37:36;;;;;;;;;;;33.10;48.30;;;;;;5072868;28;19920;-76
2022/05/18 14:40:06;;;;;;;;;;;32.80;49.50;;;;;;5073019;28;19908;-77
2022/05/18 14:42:32;;;;;;;;;;;32.50;49.50;;;;;;5073202;28;19912;-75